Terminal Aerodrome Forecast
Issued by NWS

Home | Current Version | Previous Version | Text Only | Print | Product List | Glossary On
Versions: 1 2 3 4 5 6 7 8 9 10 11 12 13 14
237
FTUS46 KSGX 251720
TAFONT
TAF
KONT 251720Z 2518/2624 VRB04KT P6SM SCT250
     FM252100 25012G18KT P6SM SCT080 SCT150
     FM260500 VRB04KT P6SM SCT200
     FM262100 25012G18KT P6SM FEW200=

USA.gov is the U.S. government's official web portal to all federal, state and local government web resources and services.